createdAt,value
2023-11-30T00:01:36.586Z,2.17
2023-11-30T00:04:03.928Z,2.14
2023-11-30T00:06:37.151Z,2.14
2023-11-30T00:09:04.839Z,2.14
2023-11-30T00:11:34.827Z,2.14
2023-11-30T00:14:02.335Z,2.13
2023-11-30T00:16:30.205Z,2.14
2023-11-30T00:18:58.133Z,2.11
2023-11-30T00:21:25.844Z,2.11
2023-11-30T00:23:53.213Z,2.13
2023-11-30T00:26:20.941Z,2.15
2023-11-30T00:28:48.183Z,2.11
2023-11-30T00:31:15.168Z,2.12
2023-11-30T00:33:43.069Z,2.13
2023-11-30T00:36:10.770Z,2.14
2023-11-30T00:38:38.220Z,2.13
2023-11-30T00:41:05.967Z,2.10
2023-11-30T00:43:33.179Z,2.13
2023-11-30T00:46:07.131Z,2.15
2023-11-30T00:48:37.809Z,2.14
2023-11-30T00:51:05.364Z,2.12
2023-11-30T00:53:32.261Z,2.11
2023-11-30T00:56:00.941Z,2.12
2023-11-30T00:58:29.577Z,2.12
2023-11-30T01:00:57.147Z,2.10
2023-11-30T01:03:24.910Z,2.09
2023-11-30T01:05:52.943Z,2.10
2023-11-30T01:08:20.590Z,2.11
2023-11-30T01:10:48.589Z,2.11
2023-11-30T01:13:16.221Z,2.12
2023-11-30T01:15:45.435Z,2.10
2023-11-30T01:18:13.201Z,2.10
2023-11-30T01:20:40.799Z,2.09
2023-11-30T01:23:07.682Z,2.08
2023-11-30T01:25:35.741Z,2.11
2023-11-30T01:28:02.690Z,2.14
2023-11-30T01:30:30.294Z,2.12
2023-11-30T01:33:00.507Z,2.11
2023-11-30T01:35:30.497Z,2.13
2023-11-30T01:37:58.097Z,2.12
2023-11-30T01:40:25.712Z,2.13
2023-11-30T01:42:52.558Z,2.14
2023-11-30T01:45:20.125Z,2.13
2023-11-30T01:47:47.732Z,2.16
2023-11-30T01:50:17.967Z,2.13
2023-11-30T01:52:45.874Z,2.11
2023-11-30T01:55:13.924Z,2.12
2023-11-30T01:57:42.162Z,2.11
2023-11-30T02:00:11.427Z,2.09
2023-11-30T02:02:39.632Z,2.09
2023-11-30T02:05:08.252Z,2.11
2023-11-30T02:07:35.904Z,2.12
2023-11-30T02:10:04.195Z,2.10
2023-11-30T02:12:31.110Z,2.10
2023-11-30T02:15:00.827Z,2.10
2023-11-30T02:17:28.718Z,2.08
2023-11-30T02:19:56.259Z,2.11
2023-11-30T02:22:23.949Z,2.13
2023-11-30T02:24:51.574Z,2.11
2023-11-30T02:27:19.328Z,2.14
2023-11-30T02:29:46.791Z,2.11
2023-11-30T02:32:14.516Z,2.12
2023-11-30T02:34:42.122Z,2.10
2023-11-30T02:37:09.816Z,2.11
2023-11-30T02:39:38.848Z,2.11
2023-11-30T02:42:07.052Z,2.12
2023-11-30T02:44:34.382Z,2.14
2023-11-30T02:47:02.389Z,2.12
2023-11-30T02:49:30.098Z,2.13
2023-11-30T02:51:58.095Z,2.13
2023-11-30T02:54:25.260Z,2.17
2023-11-30T02:56:52.968Z,2.16
2023-11-30T02:59:20.607Z,2.15
2023-11-30T03:01:48.311Z,2.15
2023-11-30T03:04:16.249Z,2.16
2023-11-30T03:06:44.040Z,2.18
2023-11-30T03:09:12.311Z,2.18
2023-11-30T03:11:40.699Z,2.18
2023-11-30T03:14:07.933Z,2.15
2023-11-30T03:16:35.446Z,2.17
2023-11-30T03:19:14.374Z,2.15
2023-11-30T03:21:44.847Z,2.16
2023-11-30T03:24:12.945Z,2.16
2023-11-30T03:26:40.212Z,2.15
2023-11-30T03:29:07.835Z,2.17
2023-11-30T03:31:37.648Z,2.18
2023-11-30T03:34:06.549Z,2.17
2023-11-30T03:36:34.500Z,2.17
2023-11-30T03:39:02.322Z,2.15
2023-11-30T03:41:29.551Z,2.15
2023-11-30T03:43:56.903Z,2.15
2023-11-30T03:46:28.348Z,2.17
2023-11-30T03:48:57.001Z,2.16
2023-11-30T03:51:25.216Z,2.14
2023-11-30T03:53:52.860Z,2.13
2023-11-30T03:56:20.823Z,2.12
2023-11-30T03:58:47.659Z,2.15
2023-11-30T04:01:22.573Z,2.13
2023-11-30T04:03:50.647Z,2.13
2023-11-30T04:06:24.627Z,2.15
2023-11-30T04:08:53.944Z,2.13
2023-11-30T04:11:21.839Z,2.13
2023-11-30T04:13:49.744Z,2.13
2023-11-30T04:16:18.518Z,2.13
2023-11-30T04:18:46.145Z,2.12
2023-11-30T04:21:14.507Z,2.12
2023-11-30T04:23:41.731Z,2.12
2023-11-30T04:26:09.275Z,2.12
2023-11-30T04:28:37.233Z,2.12
2023-11-30T04:31:04.483Z,2.12
2023-11-30T04:33:32.421Z,2.12
2023-11-30T04:36:00.206Z,2.14
2023-11-30T04:38:27.935Z,2.10
2023-11-30T04:40:55.501Z,2.11
2023-11-30T04:43:26.701Z,2.13
2023-11-30T04:45:54.625Z,2.11
2023-11-30T04:48:22.122Z,2.11
2023-11-30T04:50:49.376Z,2.10
2023-11-30T04:53:16.605Z,2.13
2023-11-30T04:55:43.563Z,2.10
2023-11-30T04:58:13.430Z,2.10
2023-11-30T05:00:41.046Z,2.08
2023-11-30T05:03:08.601Z,2.10
2023-11-30T05:05:36.163Z,2.11
2023-11-30T05:08:04.899Z,2.10
2023-11-30T05:10:31.790Z,2.06
2023-11-30T05:12:59.563Z,2.10
2023-11-30T05:15:27.096Z,2.06
2023-11-30T05:17:55.082Z,2.07
2023-11-30T05:20:22.680Z,2.06
2023-11-30T05:22:51.620Z,2.07
2023-11-30T05:25:19.364Z,2.05
2023-11-30T05:27:47.278Z,2.02
2023-11-30T05:30:14.883Z,2.03
2023-11-30T05:32:43.178Z,2.04
2023-11-30T05:35:13.515Z,2.05
2023-11-30T05:37:41.697Z,2.04
2023-11-30T05:40:10.942Z,2.03
2023-11-30T05:42:38.214Z,2.03
2023-11-30T05:45:06.151Z,2.04
2023-11-30T05:47:33.906Z,2.00
2023-11-30T05:50:01.286Z,2.05
2023-11-30T05:52:28.398Z,2.02
2023-11-30T05:54:57.033Z,1.98
2023-11-30T05:57:25.311Z,1.98
2023-11-30T05:59:52.597Z,1.98
2023-11-30T06:02:22.256Z,1.99
2023-11-30T06:04:51.906Z,1.97
2023-11-30T06:07:19.795Z,1.97
2023-11-30T06:09:47.310Z,1.98
2023-11-30T06:12:14.696Z,1.98
2023-11-30T06:14:42.554Z,1.97
2023-11-30T06:17:10.169Z,1.98
2023-11-30T06:19:37.954Z,1.99
2023-11-30T06:22:05.657Z,1.96
2023-11-30T06:24:35.352Z,1.97
2023-11-30T06:27:04.164Z,1.97
2023-11-30T06:29:31.414Z,1.98
2023-11-30T06:32:02.268Z,2.00
2023-11-30T06:34:34.530Z,2.02
2023-11-30T06:37:01.785Z,2.03
2023-11-30T06:39:30.260Z,2.02
2023-11-30T06:41:57.887Z,2.01
2023-11-30T06:44:25.177Z,2.04
2023-11-30T06:46:52.764Z,2.01
2023-11-30T06:49:20.223Z,2.01
2023-11-30T06:51:47.358Z,2.03
2023-11-30T06:54:14.935Z,2.02
2023-11-30T06:56:42.161Z,2.03
2023-11-30T06:59:09.421Z,2.02
2023-11-30T07:01:38.016Z,2.05
2023-11-30T07:04:06.182Z,2.03
2023-11-30T07:06:33.759Z,2.05
2023-11-30T07:09:01.549Z,2.04
2023-11-30T07:11:29.094Z,2.01
2023-11-30T07:13:56.220Z,2.05
2023-11-30T07:16:23.448Z,2.05
2023-11-30T07:18:52.971Z,2.06
2023-11-30T07:21:19.976Z,2.10
2023-11-30T07:23:47.405Z,2.10
2023-11-30T07:26:15.609Z,2.10
2023-11-30T07:28:43.884Z,2.10
2023-11-30T07:31:21.755Z,2.11
2023-11-30T07:33:49.629Z,2.13
2023-11-30T07:36:17.290Z,2.14
2023-11-30T07:38:44.824Z,2.15
2023-11-30T07:41:12.972Z,2.12
2023-11-30T07:43:40.486Z,2.14
2023-11-30T07:46:08.148Z,2.17
2023-11-30T07:48:35.499Z,2.15
2023-11-30T07:51:03.106Z,2.17
2023-11-30T07:53:31.061Z,2.17
2023-11-30T07:55:58.584Z,2.17
2023-11-30T07:58:26.231Z,2.17
2023-11-30T08:00:54.222Z,2.19
2023-11-30T08:03:22.077Z,2.21
2023-11-30T08:05:49.107Z,2.24
2023-11-30T08:08:17.443Z,2.26
2023-11-30T08:10:44.896Z,2.28
2023-11-30T08:13:13.670Z,2.31
2023-11-30T08:15:41.039Z,2.33
2023-11-30T08:18:09.771Z,2.34
2023-11-30T08:20:36.835Z,2.36
2023-11-30T08:23:04.567Z,2.38
2023-11-30T08:25:31.955Z,2.41
2023-11-30T08:27:59.492Z,2.44
2023-11-30T08:30:27.525Z,2.47
2023-11-30T08:32:55.776Z,2.48
2023-11-30T08:35:23.281Z,2.51
2023-11-30T08:37:51.735Z,2.55
2023-11-30T08:40:19.381Z,2.55
2023-11-30T08:42:46.644Z,2.58
2023-11-30T08:45:13.814Z,2.62
2023-11-30T08:47:43.366Z,2.65
2023-11-30T08:50:11.322Z,2.65
2023-11-30T08:52:38.914Z,2.68
2023-11-30T08:55:06.281Z,2.70
2023-11-30T08:57:33.711Z,2.72
2023-11-30T09:00:01.150Z,2.75
2023-11-30T09:02:28.846Z,2.76
2023-11-30T09:04:56.173Z,2.78
2023-11-30T09:07:23.339Z,2.80
2023-11-30T09:09:54.113Z,2.82
2023-11-30T09:12:22.241Z,2.83
2023-11-30T09:14:50.900Z,2.84
2023-11-30T09:17:18.471Z,2.84
2023-11-30T09:19:45.761Z,2.87
2023-11-30T09:22:13.175Z,2.86
2023-11-30T09:24:40.581Z,2.88
2023-11-30T09:27:07.768Z,2.89
2023-11-30T09:29:40.030Z,2.89
2023-11-30T09:32:07.717Z,2.90
2023-11-30T09:34:34.957Z,2.90
2023-11-30T09:37:02.530Z,2.90
2023-11-30T09:39:30.126Z,2.91
2023-11-30T09:42:01.499Z,2.90
2023-11-30T09:44:28.948Z,2.91
2023-11-30T09:46:57.146Z,2.92
2023-11-30T09:49:25.207Z,2.92
2023-11-30T09:51:53.314Z,2.91
2023-11-30T09:54:21.436Z,2.94
2023-11-30T09:56:48.286Z,2.94
2023-11-30T09:59:15.580Z,2.95
2023-11-30T10:01:44.352Z,2.95
2023-11-30T10:04:14.598Z,2.96
2023-11-30T10:06:42.483Z,2.96
2023-11-30T10:09:14.630Z,2.96
2023-11-30T10:11:42.586Z,2.98
2023-11-30T10:14:11.148Z,2.98
2023-11-30T10:16:38.647Z,2.98
2023-11-30T10:19:08.268Z,3.00
2023-11-30T10:21:36.069Z,3.00
2023-11-30T10:24:03.634Z,3.01
2023-11-30T10:26:35.158Z,3.01
2023-11-30T10:29:08.148Z,3.01
2023-11-30T10:31:36.681Z,3.02
2023-11-30T10:34:09.127Z,3.03
2023-11-30T10:36:38.290Z,3.04
2023-11-30T10:39:19.872Z,3.05
2023-11-30T10:41:55.193Z,3.04
2023-11-30T10:44:28.928Z,3.05
2023-11-30T10:47:00.727Z,3.04
2023-11-30T10:49:30.522Z,3.05
2023-11-30T10:52:04.168Z,3.06
2023-11-30T10:54:36.806Z,3.07
2023-11-30T10:57:05.275Z,3.07
2023-11-30T10:59:33.506Z,3.08
2023-11-30T11:02:01.147Z,3.10
2023-11-30T11:04:29.749Z,3.11
2023-11-30T11:07:01.980Z,3.12
2023-11-30T11:09:42.729Z,3.14
2023-11-30T11:12:21.363Z,3.15
2023-11-30T11:14:52.744Z,3.16
2023-11-30T11:17:26.475Z,3.13
2023-11-30T11:19:54.132Z,3.14
2023-11-30T11:22:25.316Z,3.15
2023-11-30T11:25:02.747Z,3.17
2023-11-30T11:27:32.251Z,3.19
2023-11-30T11:30:03.208Z,3.21
2023-11-30T11:32:33.068Z,3.24
2023-11-30T11:35:01.283Z,3.26
2023-11-30T11:37:29.358Z,3.28
2023-11-30T11:39:58.382Z,3.30
2023-11-30T11:42:28.319Z,3.31
2023-11-30T11:44:55.822Z,3.31
2023-11-30T11:47:23.592Z,3.31
2023-11-30T11:49:50.752Z,3.32
2023-11-30T11:52:23.068Z,3.33
2023-11-30T11:55:24.050Z,3.35
2023-11-30T11:57:53.562Z,3.35
2023-11-30T12:00:23.209Z,3.35
2023-11-30T12:02:51.656Z,3.35
2023-11-30T12:05:23.572Z,3.36
2023-11-30T12:07:56.217Z,3.35
2023-11-30T12:10:40.995Z,3.37
2023-11-30T12:13:17.677Z,3.38
2023-11-30T12:15:47.005Z,3.39
2023-11-30T12:18:15.264Z,3.37
2023-11-30T12:20:44.118Z,3.38
2023-11-30T12:23:13.727Z,3.38
2023-11-30T12:25:41.253Z,3.36
2023-11-30T12:28:08.600Z,3.37
2023-11-30T12:30:35.476Z,3.35
2023-11-30T12:33:03.377Z,3.35
2023-11-30T12:35:30.829Z,3.35
2023-11-30T12:37:57.703Z,3.37
2023-11-30T12:40:25.292Z,3.36
2023-11-30T12:42:52.562Z,3.37
2023-11-30T12:45:21.595Z,3.38
2023-11-30T12:47:50.961Z,3.40
2023-11-30T12:50:18.400Z,3.40
2023-11-30T12:52:45.971Z,3.40
2023-11-30T12:55:14.818Z,3.41
2023-11-30T12:57:44.426Z,3.44
2023-11-30T13:00:16.112Z,3.43
2023-11-30T13:02:47.333Z,3.45
2023-11-30T13:05:15.299Z,3.44
2023-11-30T13:07:42.665Z,3.45
2023-11-30T13:10:13.268Z,3.44
2023-11-30T13:12:42.447Z,3.45
2023-11-30T13:15:13.213Z,3.45
2023-11-30T13:17:41.811Z,3.47
2023-11-30T13:20:12.874Z,3.46
2023-11-30T13:22:42.459Z,3.46
2023-11-30T13:25:11.349Z,3.47
2023-11-30T13:27:38.779Z,3.48
2023-11-30T13:30:06.888Z,3.47
2023-11-30T13:32:35.670Z,3.47
2023-11-30T13:35:03.931Z,3.48
2023-11-30T13:37:32.260Z,3.48
2023-11-30T13:39:59.330Z,3.48
2023-11-30T13:42:27.406Z,3.46
2023-11-30T13:44:55.351Z,3.47
2023-11-30T13:47:23.013Z,3.49
2023-11-30T13:49:50.409Z,3.48
2023-11-30T13:52:17.590Z,3.50
2023-11-30T13:54:46.273Z,3.49
2023-11-30T13:57:13.926Z,3.51
2023-11-30T13:59:41.332Z,3.50
2023-11-30T14:02:09.422Z,3.50
2023-11-30T14:04:36.990Z,3.50
2023-11-30T14:07:05.495Z,3.49
2023-11-30T14:09:33.704Z,3.49
2023-11-30T14:12:00.604Z,3.48
2023-11-30T14:14:27.836Z,3.46
2023-11-30T14:16:55.444Z,3.44
2023-11-30T14:19:23.495Z,3.44
2023-11-30T14:21:50.366Z,3.44
2023-11-30T14:24:17.260Z,3.42
2023-11-30T14:26:45.759Z,3.42
2023-11-30T14:29:14.278Z,3.44
2023-11-30T14:31:41.762Z,3.43
2023-11-30T14:34:09.079Z,3.43
2023-11-30T14:36:36.675Z,3.43
2023-11-30T14:39:05.448Z,3.42
2023-11-30T14:41:33.483Z,3.41
2023-11-30T14:44:01.163Z,3.43
2023-11-30T14:46:28.270Z,3.41
2023-11-30T14:48:56.895Z,3.38
2023-11-30T14:51:24.707Z,3.37
2023-11-30T14:53:51.792Z,3.44
2023-11-30T14:56:19.288Z,3.41
2023-11-30T14:58:47.152Z,3.39
2023-11-30T15:01:14.895Z,3.42
2023-11-30T15:03:42.883Z,3.44
2023-11-30T15:06:10.691Z,3.46
2023-11-30T15:08:37.575Z,3.44
2023-11-30T15:11:06.009Z,3.46
2023-11-30T15:13:34.171Z,3.44
2023-11-30T15:16:01.374Z,3.42
2023-11-30T15:18:29.383Z,3.42
2023-11-30T15:20:56.208Z,3.46
2023-11-30T15:23:23.584Z,3.43
2023-11-30T15:25:52.160Z,3.43
2023-11-30T15:28:21.143Z,3.44
2023-11-30T15:30:48.688Z,3.43
2023-11-30T15:33:15.593Z,3.43
2023-11-30T15:35:43.470Z,3.44
2023-11-30T15:38:10.900Z,3.42
2023-11-30T15:40:38.268Z,3.44
2023-11-30T15:43:06.697Z,3.45
2023-11-30T15:45:36.195Z,3.48
2023-11-30T15:48:05.129Z,3.47
2023-11-30T15:50:32.095Z,3.51
2023-11-30T15:52:59.502Z,3.48
2023-11-30T15:55:27.979Z,3.46
2023-11-30T15:57:55.619Z,3.45
2023-11-30T16:00:23.132Z,3.48
2023-11-30T16:02:50.848Z,3.52
2023-11-30T16:05:21.197Z,3.52
2023-11-30T16:07:49.019Z,3.53
2023-11-30T16:10:16.461Z,3.53
2023-11-30T16:12:44.199Z,3.55
2023-11-30T16:15:12.095Z,3.53
2023-11-30T16:17:40.616Z,3.53
2023-11-30T16:20:12.859Z,3.52
2023-11-30T16:22:42.015Z,3.53
2023-11-30T16:25:14.145Z,3.54
2023-11-30T16:27:45.594Z,3.55
2023-11-30T16:30:13.928Z,3.55
2023-11-30T16:32:41.391Z,3.54
2023-11-30T16:35:09.801Z,3.56
2023-11-30T16:37:37.527Z,3.55
2023-11-30T16:40:06.204Z,3.55
2023-11-30T16:42:33.433Z,3.55
2023-11-30T16:45:01.439Z,3.56
2023-11-30T16:47:29.161Z,3.55
2023-11-30T16:49:56.599Z,3.52
2023-11-30T16:52:23.970Z,3.54
2023-11-30T16:54:51.859Z,3.56
2023-11-30T16:57:18.961Z,3.53
2023-11-30T16:59:46.855Z,3.54
2023-11-30T17:02:14.167Z,3.54
2023-11-30T17:04:45.976Z,3.55
2023-11-30T17:07:13.243Z,3.56
2023-11-30T17:09:42.275Z,3.57
2023-11-30T17:12:12.756Z,3.59
2023-11-30T17:14:40.416Z,3.58
2023-11-30T17:17:09.663Z,3.57
2023-11-30T17:19:36.671Z,3.57
2023-11-30T17:22:04.371Z,3.61
2023-11-30T17:24:34.107Z,3.61
2023-11-30T17:27:01.381Z,3.62
2023-11-30T17:29:28.656Z,3.64
2023-11-30T17:31:55.909Z,3.66
2023-11-30T17:34:23.745Z,3.63
2023-11-30T17:36:52.710Z,3.63
2023-11-30T17:39:20.020Z,3.66
2023-11-30T17:41:47.047Z,3.65
2023-11-30T17:44:14.379Z,3.65
2023-11-30T17:46:45.228Z,3.64
2023-11-30T17:49:21.675Z,3.61
2023-11-30T17:51:49.314Z,3.57
2023-11-30T17:54:17.140Z,3.57
2023-11-30T17:56:44.769Z,3.56
2023-11-30T17:59:15.312Z,3.55
2023-11-30T18:01:42.939Z,3.52
2023-11-30T18:04:11.902Z,3.55
2023-11-30T18:06:39.359Z,3.58
2023-11-30T18:09:06.878Z,3.59
2023-11-30T18:11:33.866Z,3.58
2023-11-30T18:14:01.994Z,3.61
2023-11-30T18:16:29.133Z,3.55
2023-11-30T18:18:56.879Z,3.57
2023-11-30T18:21:26.484Z,3.56
2023-11-30T18:23:54.575Z,3.57
2023-11-30T18:26:24.340Z,3.58
2023-11-30T18:28:54.221Z,3.61
2023-11-30T18:31:23.025Z,3.61
2023-11-30T18:33:51.687Z,3.62
2023-11-30T18:36:19.342Z,3.61
2023-11-30T18:38:50.958Z,3.63
2023-11-30T18:41:21.690Z,3.61
2023-11-30T18:43:51.167Z,3.61
2023-11-30T18:46:19.642Z,3.64
2023-11-30T18:48:47.804Z,3.63
2023-11-30T18:51:16.155Z,3.63
2023-11-30T18:53:45.489Z,3.60
2023-11-30T18:56:13.820Z,3.62
2023-11-30T18:58:44.228Z,3.64
2023-11-30T19:01:12.414Z,3.66
2023-11-30T19:03:40.322Z,3.65
2023-11-30T19:06:15.979Z,3.64
2023-11-30T19:08:44.249Z,3.65
2023-11-30T19:11:17.616Z,3.64
2023-11-30T19:13:45.728Z,3.65
2023-11-30T19:16:23.844Z,3.66
2023-11-30T19:18:52.879Z,3.62
2023-11-30T19:21:21.143Z,3.62
2023-11-30T19:23:51.400Z,3.63
2023-11-30T19:26:20.017Z,3.65
2023-11-30T19:28:47.981Z,3.64
2023-11-30T19:31:15.216Z,3.64
2023-11-30T19:33:43.967Z,3.65
2023-11-30T19:36:12.576Z,3.64
2023-11-30T19:38:40.602Z,3.64
2023-11-30T19:41:08.820Z,3.65
2023-11-30T19:43:37.609Z,3.65
2023-11-30T19:46:05.806Z,3.65
2023-11-30T19:48:34.555Z,3.66
2023-11-30T19:51:03.066Z,3.65
2023-11-30T19:53:31.444Z,3.66
2023-11-30T19:56:00.272Z,3.66
2023-11-30T19:58:28.185Z,3.64
2023-11-30T20:00:56.214Z,3.65
2023-11-30T20:03:24.593Z,3.64
2023-11-30T20:05:53.054Z,3.66
2023-11-30T20:08:21.204Z,3.61
2023-11-30T20:10:52.080Z,3.63
2023-11-30T20:13:21.065Z,3.61
2023-11-30T20:15:49.079Z,3.63
2023-11-30T20:18:16.938Z,3.64
2023-11-30T20:20:45.067Z,3.65
2023-11-30T20:23:13.926Z,3.65
2023-11-30T20:25:41.733Z,3.65
2023-11-30T20:28:09.153Z,3.66
2023-11-30T20:30:37.711Z,3.63
2023-11-30T20:33:05.619Z,3.63
2023-11-30T20:35:34.187Z,3.64
2023-11-30T20:38:02.699Z,3.63
2023-11-30T20:40:30.721Z,3.65
2023-11-30T20:42:58.095Z,3.65
2023-11-30T20:45:26.301Z,3.64
2023-11-30T20:47:54.066Z,3.59
2023-11-30T20:50:21.576Z,3.60
2023-11-30T20:52:49.209Z,3.58
2023-11-30T20:55:17.029Z,3.62
2023-11-30T20:57:46.123Z,3.59
2023-11-30T21:00:13.753Z,3.60
2023-11-30T21:02:41.953Z,3.60
2023-11-30T21:05:09.676Z,3.61
2023-11-30T21:07:37.403Z,3.60
2023-11-30T21:10:05.114Z,3.59
2023-11-30T21:12:32.645Z,3.57
2023-11-30T21:15:00.503Z,3.60
2023-11-30T21:17:27.619Z,3.61
2023-11-30T21:19:55.404Z,3.58
2023-11-30T21:22:22.601Z,3.61
2023-11-30T21:24:49.535Z,3.58
2023-11-30T21:27:17.612Z,3.59
2023-11-30T21:29:44.929Z,3.58
2023-11-30T21:32:13.311Z,3.58
2023-11-30T21:34:41.541Z,3.58
2023-11-30T21:37:08.754Z,3.59
2023-11-30T21:39:36.282Z,3.61
2023-11-30T21:42:04.218Z,3.60
2023-11-30T21:44:31.682Z,3.62
2023-11-30T21:46:59.066Z,3.61
2023-11-30T21:49:26.980Z,3.61
2023-11-30T21:51:54.100Z,3.59
2023-11-30T21:54:21.306Z,3.60
2023-11-30T21:56:49.129Z,3.58
2023-11-30T21:59:17.593Z,3.58
2023-11-30T22:01:45.627Z,3.58
2023-11-30T22:04:13.107Z,3.59
2023-11-30T22:06:43.567Z,3.62
2023-11-30T22:09:11.288Z,3.59
2023-11-30T22:11:38.506Z,3.58
2023-11-30T22:14:05.893Z,3.57
2023-11-30T22:16:38.343Z,3.59
2023-11-30T22:19:06.579Z,3.60
2023-11-30T22:21:34.734Z,3.58
2023-11-30T22:24:02.011Z,3.59
2023-11-30T22:26:29.142Z,3.57
2023-11-30T22:28:57.780Z,3.56
2023-11-30T22:31:24.974Z,3.55
2023-11-30T22:33:52.225Z,3.56
2023-11-30T22:36:20.320Z,3.56
2023-11-30T22:38:47.218Z,3.59
2023-11-30T22:41:15.116Z,3.61
2023-11-30T22:43:42.635Z,3.60
2023-11-30T22:46:18.631Z,3.62
2023-11-30T22:48:47.169Z,3.61
2023-11-30T22:51:14.123Z,3.59
2023-11-30T22:53:41.441Z,3.60
2023-11-30T22:56:17.681Z,3.60
2023-11-30T22:58:45.576Z,3.61
2023-11-30T23:01:14.379Z,3.60
2023-11-30T23:03:42.189Z,3.60
2023-11-30T23:06:10.288Z,3.60
2023-11-30T23:08:37.760Z,3.59
2023-11-30T23:11:05.970Z,3.61
2023-11-30T23:13:33.433Z,3.60
2023-11-30T23:16:02.257Z,3.59
2023-11-30T23:18:31.889Z,3.62
2023-11-30T23:21:00.277Z,3.62
2023-11-30T23:23:27.968Z,3.62
2023-11-30T23:25:55.461Z,3.57
2023-11-30T23:28:22.632Z,3.59
2023-11-30T23:30:50.097Z,3.59
2023-11-30T23:33:17.990Z,3.59
2023-11-30T23:35:45.329Z,3.58
2023-11-30T23:38:12.886Z,3.60
2023-11-30T23:40:40.548Z,3.58
2023-11-30T23:43:07.957Z,3.59
2023-11-30T23:45:35.995Z,3.61
2023-11-30T23:48:03.271Z,3.60
2023-11-30T23:50:30.895Z,3.61
2023-11-30T23:52:58.094Z,3.59
2023-11-30T23:55:25.241Z,3.61
2023-11-30T23:57:53.116Z,3.61
